sensor_id;sensor_type;location;lat;lon;timestamp;P1;durP1;ratioP1;P2;durP2;ratioP2
11823;SDS011;5969;50.780;7.726;2023-03-03T00:00:00;12.65;;;9.50;;
11823;SDS011;5969;50.780;7.726;2023-03-03T00:02:27;11.25;;;8.18;;
11823;SDS011;5969;50.780;7.726;2023-03-03T00:04:54;11.10;;;7.88;;
11823;SDS011;5969;50.780;7.726;2023-03-03T00:07:22;10.98;;;7.72;;
11823;SDS011;5969;50.780;7.726;2023-03-03T00:09:49;9.68;;;7.68;;
11823;SDS011;5969;50.780;7.726;2023-03-03T00:12:18;10.65;;;7.60;;
11823;SDS011;5969;50.780;7.726;2023-03-03T00:14:48;10.27;;;8.18;;
11823;SDS011;5969;50.780;7.726;2023-03-03T00:17:18;12.05;;;8.52;;
11823;SDS011;5969;50.780;7.726;2023-03-03T00:19:47;9.90;;;7.18;;
11823;SDS011;5969;50.780;7.726;2023-03-03T00:22:15;13.05;;;8.35;;
11823;SDS011;5969;50.780;7.726;2023-03-03T00:24:50;12.88;;;8.60;;
11823;SDS011;5969;50.780;7.726;2023-03-03T00:27:19;11.82;;;8.52;;
11823;SDS011;5969;50.780;7.726;2023-03-03T00:29:52;11.80;;;8.43;;
11823;SDS011;5969;50.780;7.726;2023-03-03T00:32:22;12.95;;;8.15;;
11823;SDS011;5969;50.780;7.726;2023-03-03T00:34:51;14.23;;;8.35;;
11823;SDS011;5969;50.780;7.726;2023-03-03T00:37:22;10.70;;;8.18;;
11823;SDS011;5969;50.780;7.726;2023-03-03T00:39:58;11.13;;;8.40;;
11823;SDS011;5969;50.780;7.726;2023-03-03T00:42:40;11.73;;;7.70;;
11823;SDS011;5969;50.780;7.726;2023-03-03T00:45:16;11.05;;;7.90;;
11823;SDS011;5969;50.780;7.726;2023-03-03T00:47:55;10.02;;;7.82;;
11823;SDS011;5969;50.780;7.726;2023-03-03T00:50:27;9.85;;;7.95;;
11823;SDS011;5969;50.780;7.726;2023-03-03T00:53:00;10.32;;;7.75;;
11823;SDS011;5969;50.780;7.726;2023-03-03T00:55:30;12.02;;;7.78;;
11823;SDS011;5969;50.780;7.726;2023-03-03T00:57:58;10.45;;;7.70;;
11823;SDS011;5969;50.780;7.726;2023-03-03T01:00:24;12.35;;;8.25;;
11823;SDS011;5969;50.780;7.726;2023-03-03T01:02:51;11.55;;;8.55;;
11823;SDS011;5969;50.780;7.726;2023-03-03T01:05:18;11.90;;;7.95;;
11823;SDS011;5969;50.780;7.726;2023-03-03T01:07:46;10.02;;;7.82;;
11823;SDS011;5969;50.780;7.726;2023-03-03T01:10:12;12.27;;;8.57;;
11823;SDS011;5969;50.780;7.726;2023-03-03T01:12:40;10.70;;;7.45;;
11823;SDS011;5969;50.780;7.726;2023-03-03T01:15:08;10.90;;;8.38;;
11823;SDS011;5969;50.780;7.726;2023-03-03T01:17:36;9.60;;;7.43;;
11823;SDS011;5969;50.780;7.726;2023-03-03T01:20:04;9.88;;;7.15;;
11823;SDS011;5969;50.780;7.726;2023-03-03T01:22:32;10.27;;;7.45;;
11823;SDS011;5969;50.780;7.726;2023-03-03T01:24:59;11.10;;;7.60;;
11823;SDS011;5969;50.780;7.726;2023-03-03T01:27:27;10.73;;;7.85;;
11823;SDS011;5969;50.780;7.726;2023-03-03T01:29:55;10.40;;;8.13;;
11823;SDS011;5969;50.780;7.726;2023-03-03T01:32:23;9.45;;;7.70;;
11823;SDS011;5969;50.780;7.726;2023-03-03T01:34:50;12.70;;;8.02;;
11823;SDS011;5969;50.780;7.726;2023-03-03T01:37:16;10.13;;;7.65;;
11823;SDS011;5969;50.780;7.726;2023-03-03T01:39:46;11.27;;;7.50;;
11823;SDS011;5969;50.780;7.726;2023-03-03T01:42:13;8.20;;;6.50;;
11823;SDS011;5969;50.780;7.726;2023-03-03T01:44:40;10.82;;;7.18;;
11823;SDS011;5969;50.780;7.726;2023-03-03T01:47:09;11.82;;;7.28;;
11823;SDS011;5969;50.780;7.726;2023-03-03T01:49:39;12.05;;;7.75;;
11823;SDS011;5969;50.780;7.726;2023-03-03T01:52:09;11.98;;;7.15;;
11823;SDS011;5969;50.780;7.726;2023-03-03T01:54:40;11.40;;;7.30;;
11823;SDS011;5969;50.780;7.726;2023-03-03T01:57:10;10.90;;;7.20;;
11823;SDS011;5969;50.780;7.726;2023-03-03T01:59:41;10.95;;;7.57;;
11823;SDS011;5969;50.780;7.726;2023-03-03T02:02:12;9.60;;;6.85;;
11823;SDS011;5969;50.780;7.726;2023-03-03T02:04:39;11.02;;;7.55;;
11823;SDS011;5969;50.780;7.726;2023-03-03T02:07:06;9.00;;;6.45;;
11823;SDS011;5969;50.780;7.726;2023-03-03T02:09:37;13.27;;;7.95;;
11823;SDS011;5969;50.780;7.726;2023-03-03T02:12:12;9.82;;;7.43;;
11823;SDS011;5969;50.780;7.726;2023-03-03T02:14:42;10.23;;;7.35;;
11823;SDS011;5969;50.780;7.726;2023-03-03T02:17:09;9.00;;;6.95;;
11823;SDS011;5969;50.780;7.726;2023-03-03T02:19:39;10.13;;;6.80;;
11823;SDS011;5969;50.780;7.726;2023-03-03T02:22:12;11.13;;;7.72;;
11823;SDS011;5969;50.780;7.726;2023-03-03T02:24:44;10.38;;;7.60;;
11823;SDS011;5969;50.780;7.726;2023-03-03T02:27:17;10.15;;;7.70;;
11823;SDS011;5969;50.780;7.726;2023-03-03T02:29:44;11.57;;;7.80;;
11823;SDS011;5969;50.780;7.726;2023-03-03T02:32:10;11.98;;;7.65;;
11823;SDS011;5969;50.780;7.726;2023-03-03T02:34:45;12.63;;;7.82;;
11823;SDS011;5969;50.780;7.726;2023-03-03T02:37:14;11.63;;;6.93;;
11823;SDS011;5969;50.780;7.726;2023-03-03T02:39:41;8.95;;;6.85;;
11823;SDS011;5969;50.780;7.726;2023-03-03T02:42:11;9.93;;;7.68;;
11823;SDS011;5969;50.780;7.726;2023-03-03T02:44:44;9.77;;;7.20;;
11823;SDS011;5969;50.780;7.726;2023-03-03T02:47:11;10.90;;;6.68;;
11823;SDS011;5969;50.780;7.726;2023-03-03T02:49:38;9.00;;;6.25;;
11823;SDS011;5969;50.780;7.726;2023-03-03T02:52:07;8.20;;;6.00;;
11823;SDS011;5969;50.780;7.726;2023-03-03T02:54:35;10.60;;;7.45;;
11823;SDS011;5969;50.780;7.726;2023-03-03T02:57:03;8.95;;;6.10;;
11823;SDS011;5969;50.780;7.726;2023-03-03T02:59:31;9.80;;;6.53;;
11823;SDS011;5969;50.780;7.726;2023-03-03T03:01:59;9.63;;;6.32;;
11823;SDS011;5969;50.780;7.726;2023-03-03T03:04:26;12.18;;;7.30;;
11823;SDS011;5969;50.780;7.726;2023-03-03T03:06:53;9.68;;;6.63;;
11823;SDS011;5969;50.780;7.726;2023-03-03T03:09:20;13.93;;;7.85;;
11823;SDS011;5969;50.780;7.726;2023-03-03T03:11:49;11.23;;;7.88;;
11823;SDS011;5969;50.780;7.726;2023-03-03T03:14:15;10.30;;;6.57;;
11823;SDS011;5969;50.780;7.726;2023-03-03T03:16:42;8.38;;;6.65;;
11823;SDS011;5969;50.780;7.726;2023-03-03T03:19:10;8.77;;;7.22;;
11823;SDS011;5969;50.780;7.726;2023-03-03T03:21:37;9.50;;;7.10;;
11823;SDS011;5969;50.780;7.726;2023-03-03T03:24:04;10.20;;;6.72;;
11823;SDS011;5969;50.780;7.726;2023-03-03T03:26:31;6.95;;;5.85;;
11823;SDS011;5969;50.780;7.726;2023-03-03T03:28:58;11.82;;;6.45;;
11823;SDS011;5969;50.780;7.726;2023-03-03T03:31:25;10.05;;;7.00;;
11823;SDS011;5969;50.780;7.726;2023-03-03T03:33:52;10.00;;;6.90;;
11823;SDS011;5969;50.780;7.726;2023-03-03T03:36:20;9.57;;;6.85;;
11823;SDS011;5969;50.780;7.726;2023-03-03T03:38:47;11.48;;;7.32;;
11823;SDS011;5969;50.780;7.726;2023-03-03T03:41:14;9.18;;;6.75;;
11823;SDS011;5969;50.780;7.726;2023-03-03T03:43:40;8.85;;;6.55;;
11823;SDS011;5969;50.780;7.726;2023-03-03T03:46:07;11.40;;;7.55;;
11823;SDS011;5969;50.780;7.726;2023-03-03T03:48:34;11.52;;;7.50;;
11823;SDS011;5969;50.780;7.726;2023-03-03T03:51:01;12.20;;;7.78;;
11823;SDS011;5969;50.780;7.726;2023-03-03T03:53:29;10.57;;;7.72;;
11823;SDS011;5969;50.780;7.726;2023-03-03T03:55:56;11.70;;;7.88;;
11823;SDS011;5969;50.780;7.726;2023-03-03T03:58:23;11.60;;;8.35;;
11823;SDS011;5969;50.780;7.726;2023-03-03T04:00:50;12.32;;;8.48;;
11823;SDS011;5969;50.780;7.726;2023-03-03T04:03:17;12.35;;;8.75;;
11823;SDS011;5969;50.780;7.726;2023-03-03T04:05:44;13.32;;;8.30;;
11823;SDS011;5969;50.780;7.726;2023-03-03T04:08:10;11.48;;;8.27;;
11823;SDS011;5969;50.780;7.726;2023-03-03T04:10:39;12.63;;;8.38;;
11823;SDS011;5969;50.780;7.726;2023-03-03T04:13:05;13.57;;;8.68;;
11823;SDS011;5969;50.780;7.726;2023-03-03T04:15:32;10.50;;;7.90;;
11823;SDS011;5969;50.780;7.726;2023-03-03T04:17:59;11.20;;;7.65;;
11823;SDS011;5969;50.780;7.726;2023-03-03T04:20:26;11.60;;;7.57;;
11823;SDS011;5969;50.780;7.726;2023-03-03T04:22:53;11.77;;;7.20;;
11823;SDS011;5969;50.780;7.726;2023-03-03T04:25:20;10.52;;;6.93;;
11823;SDS011;5969;50.780;7.726;2023-03-03T04:27:48;11.75;;;7.38;;
11823;SDS011;5969;50.780;7.726;2023-03-03T04:30:16;10.32;;;7.15;;
11823;SDS011;5969;50.780;7.726;2023-03-03T04:32:42;11.20;;;7.13;;
11823;SDS011;5969;50.780;7.726;2023-03-03T04:35:10;10.85;;;7.32;;
11823;SDS011;5969;50.780;7.726;2023-03-03T04:37:37;11.50;;;7.75;;
11823;SDS011;5969;50.780;7.726;2023-03-03T04:40:04;12.98;;;8.40;;
11823;SDS011;5969;50.780;7.726;2023-03-03T04:42:32;11.43;;;8.25;;
11823;SDS011;5969;50.780;7.726;2023-03-03T04:45:01;12.48;;;8.50;;
11823;SDS011;5969;50.780;7.726;2023-03-03T04:47:28;12.90;;;8.57;;
11823;SDS011;5969;50.780;7.726;2023-03-03T04:49:55;11.95;;;8.70;;
11823;SDS011;5969;50.780;7.726;2023-03-03T04:52:21;11.60;;;8.77;;
11823;SDS011;5969;50.780;7.726;2023-03-03T04:54:48;13.82;;;9.35;;
11823;SDS011;5969;50.780;7.726;2023-03-03T04:57:15;14.52;;;10.02;;
11823;SDS011;5969;50.780;7.726;2023-03-03T04:59:41;14.85;;;10.18;;
11823;SDS011;5969;50.780;7.726;2023-03-03T05:02:10;12.15;;;8.98;;
11823;SDS011;5969;50.780;7.726;2023-03-03T05:04:37;14.25;;;9.40;;
11823;SDS011;5969;50.780;7.726;2023-03-03T05:07:04;11.68;;;8.63;;
11823;SDS011;5969;50.780;7.726;2023-03-03T05:09:30;10.75;;;8.70;;
11823;SDS011;5969;50.780;7.726;2023-03-03T05:11:57;13.15;;;8.80;;
11823;SDS011;5969;50.780;7.726;2023-03-03T05:14:25;14.27;;;9.70;;
11823;SDS011;5969;50.780;7.726;2023-03-03T05:16:52;12.73;;;8.98;;
11823;SDS011;5969;50.780;7.726;2023-03-03T05:19:20;10.82;;;8.88;;
11823;SDS011;5969;50.780;7.726;2023-03-03T05:21:47;12.00;;;8.90;;
11823;SDS011;5969;50.780;7.726;2023-03-03T05:24:14;12.98;;;9.10;;
11823;SDS011;5969;50.780;7.726;2023-03-03T05:26:41;12.60;;;9.23;;
11823;SDS011;5969;50.780;7.726;2023-03-03T05:29:08;11.77;;;9.35;;
11823;SDS011;5969;50.780;7.726;2023-03-03T05:31:35;12.85;;;9.25;;
11823;SDS011;5969;50.780;7.726;2023-03-03T05:34:02;11.23;;;8.88;;
11823;SDS011;5969;50.780;7.726;2023-03-03T05:36:30;12.60;;;8.95;;
11823;SDS011;5969;50.780;7.726;2023-03-03T05:38:57;12.55;;;9.30;;
11823;SDS011;5969;50.780;7.726;2023-03-03T05:41:24;14.27;;;9.18;;
11823;SDS011;5969;50.780;7.726;2023-03-03T05:43:51;13.75;;;8.90;;
11823;SDS011;5969;50.780;7.726;2023-03-03T05:46:17;13.52;;;8.77;;
11823;SDS011;5969;50.780;7.726;2023-03-03T05:48:44;13.15;;;9.43;;
11823;SDS011;5969;50.780;7.726;2023-03-03T05:51:11;12.57;;;8.52;;
11823;SDS011;5969;50.780;7.726;2023-03-03T05:53:39;14.80;;;9.13;;
11823;SDS011;5969;50.780;7.726;2023-03-03T05:56:06;13.02;;;8.85;;
11823;SDS011;5969;50.780;7.726;2023-03-03T05:58:33;13.88;;;9.43;;
11823;SDS011;5969;50.780;7.726;2023-03-03T06:01:00;13.95;;;8.35;;
11823;SDS011;5969;50.780;7.726;2023-03-03T06:03:26;14.73;;;9.05;;
11823;SDS011;5969;50.780;7.726;2023-03-03T06:05:53;11.05;;;8.27;;
11823;SDS011;5969;50.780;7.726;2023-03-03T06:08:20;13.30;;;8.75;;
11823;SDS011;5969;50.780;7.726;2023-03-03T06:10:48;20.67;;;13.85;;
11823;SDS011;5969;50.780;7.726;2023-03-03T06:13:15;18.90;;;14.95;;
11823;SDS011;5969;50.780;7.726;2023-03-03T06:15:41;18.98;;;11.93;;
11823;SDS011;5969;50.780;7.726;2023-03-03T06:18:08;13.70;;;9.75;;
11823;SDS011;5969;50.780;7.726;2023-03-03T06:20:35;14.65;;;10.93;;
11823;SDS011;5969;50.780;7.726;2023-03-03T06:23:02;15.93;;;10.98;;
11823;SDS011;5969;50.780;7.726;2023-03-03T06:25:29;17.38;;;11.13;;
11823;SDS011;5969;50.780;7.726;2023-03-03T06:28:01;16.35;;;11.75;;
11823;SDS011;5969;50.780;7.726;2023-03-03T06:30:28;14.98;;;9.73;;
11823;SDS011;5969;50.780;7.726;2023-03-03T06:32:54;15.43;;;10.23;;
11823;SDS011;5969;50.780;7.726;2023-03-03T06:35:21;14.60;;;10.48;;
11823;SDS011;5969;50.780;7.726;2023-03-03T06:37:48;15.48;;;11.05;;
11823;SDS011;5969;50.780;7.726;2023-03-03T06:40:15;16.10;;;11.48;;
11823;SDS011;5969;50.780;7.726;2023-03-03T06:42:42;16.40;;;10.55;;
11823;SDS011;5969;50.780;7.726;2023-03-03T06:45:10;16.05;;;10.65;;
11823;SDS011;5969;50.780;7.726;2023-03-03T06:47:37;31.25;;;18.45;;
11823;SDS011;5969;50.780;7.726;2023-03-03T06:50:05;116.95;;;64.20;;
11823;SDS011;5969;50.780;7.726;2023-03-03T06:52:32;108.38;;;59.95;;
11823;SDS011;5969;50.780;7.726;2023-03-03T06:54:59;104.75;;;59.03;;
11823;SDS011;5969;50.780;7.726;2023-03-03T06:57:32;69.75;;;41.15;;
11823;SDS011;5969;50.780;7.726;2023-03-03T07:00:05;41.00;;;24.42;;
11823;SDS011;5969;50.780;7.726;2023-03-03T07:02:40;28.48;;;18.50;;
11823;SDS011;5969;50.780;7.726;2023-03-03T07:05:10;26.98;;;18.23;;
11823;SDS011;5969;50.780;7.726;2023-03-03T07:07:40;22.38;;;15.98;;
11823;SDS011;5969;50.780;7.726;2023-03-03T07:10:12;22.38;;;15.02;;
11823;SDS011;5969;50.780;7.726;2023-03-03T07:12:45;22.08;;;13.57;;
11823;SDS011;5969;50.780;7.726;2023-03-03T07:15:15;20.85;;;13.30;;
11823;SDS011;5969;50.780;7.726;2023-03-03T07:17:44;21.70;;;13.05;;
11823;SDS011;5969;50.780;7.726;2023-03-03T07:20:14;18.30;;;13.25;;
11823;SDS011;5969;50.780;7.726;2023-03-03T07:22:44;23.65;;;14.75;;
11823;SDS011;5969;50.780;7.726;2023-03-03T07:25:17;19.73;;;13.70;;
11823;SDS011;5969;50.780;7.726;2023-03-03T07:27:46;22.35;;;13.48;;
11823;SDS011;5969;50.780;7.726;2023-03-03T07:30:19;19.67;;;13.02;;
11823;SDS011;5969;50.780;7.726;2023-03-03T07:32:51;22.30;;;13.07;;
11823;SDS011;5969;50.780;7.726;2023-03-03T07:35:24;19.52;;;14.02;;
11823;SDS011;5969;50.780;7.726;2023-03-03T07:37:56;19.63;;;12.38;;
11823;SDS011;5969;50.780;7.726;2023-03-03T07:40:33;20.48;;;12.95;;
11823;SDS011;5969;50.780;7.726;2023-03-03T07:43:13;19.38;;;12.65;;
11823;SDS011;5969;50.780;7.726;2023-03-03T07:45:54;18.38;;;12.15;;
11823;SDS011;5969;50.780;7.726;2023-03-03T07:48:28;16.17;;;11.40;;
11823;SDS011;5969;50.780;7.726;2023-03-03T07:51:02;19.83;;;12.40;;
11823;SDS011;5969;50.780;7.726;2023-03-03T07:53:32;17.80;;;12.05;;
11823;SDS011;5969;50.780;7.726;2023-03-03T07:56:02;17.20;;;12.48;;
11823;SDS011;5969;50.780;7.726;2023-03-03T07:58:40;16.45;;;12.02;;
11823;SDS011;5969;50.780;7.726;2023-03-03T08:04:08;17.55;;;12.40;;
11823;SDS011;5969;50.780;7.726;2023-03-03T08:06:44;17.15;;;11.77;;
11823;SDS011;5969;50.780;7.726;2023-03-03T08:09:30;20.42;;;13.45;;
11823;SDS011;5969;50.780;7.726;2023-03-03T08:15:14;24.50;;;15.52;;
11823;SDS011;5969;50.780;7.726;2023-03-03T08:17:49;26.75;;;17.30;;
11823;SDS011;5969;50.780;7.726;2023-03-03T08:20:38;20.00;;;14.05;;
11823;SDS011;5969;50.780;7.726;2023-03-03T08:23:09;23.98;;;16.23;;
11823;SDS011;5969;50.780;7.726;2023-03-03T08:25:37;21.55;;;14.77;;
11823;SDS011;5969;50.780;7.726;2023-03-03T08:28:05;46.15;;;24.38;;
11823;SDS011;5969;50.780;7.726;2023-03-03T08:30:33;26.98;;;18.13;;
11823;SDS011;5969;50.780;7.726;2023-03-03T08:33:01;24.67;;;16.88;;
11823;SDS011;5969;50.780;7.726;2023-03-03T08:35:28;28.98;;;19.17;;
11823;SDS011;5969;50.780;7.726;2023-03-03T08:37:55;74.05;;;37.38;;
11823;SDS011;5969;50.780;7.726;2023-03-03T08:40:22;26.83;;;17.15;;
11823;SDS011;5969;50.780;7.726;2023-03-03T08:42:49;28.00;;;19.30;;
11823;SDS011;5969;50.780;7.726;2023-03-03T08:45:15;29.85;;;19.75;;
11823;SDS011;5969;50.780;7.726;2023-03-03T08:47:42;33.45;;;21.80;;
11823;SDS011;5969;50.780;7.726;2023-03-03T08:50:11;33.30;;;19.67;;
11823;SDS011;5969;50.780;7.726;2023-03-03T08:52:38;46.72;;;27.42;;
11823;SDS011;5969;50.780;7.726;2023-03-03T08:55:05;29.23;;;19.00;;
11823;SDS011;5969;50.780;7.726;2023-03-03T08:57:33;29.40;;;18.73;;
11823;SDS011;5969;50.780;7.726;2023-03-03T09:00:00;28.30;;;19.25;;
11823;SDS011;5969;50.780;7.726;2023-03-03T09:02:27;30.88;;;20.58;;
11823;SDS011;5969;50.780;7.726;2023-03-03T09:04:54;30.65;;;20.48;;
11823;SDS011;5969;50.780;7.726;2023-03-03T09:07:22;28.92;;;19.42;;
11823;SDS011;5969;50.780;7.726;2023-03-03T09:09:49;28.98;;;19.20;;
11823;SDS011;5969;50.780;7.726;2023-03-03T09:12:17;26.45;;;18.60;;
11823;SDS011;5969;50.780;7.726;2023-03-03T09:14:54;27.55;;;19.65;;
11823;SDS011;5969;50.780;7.726;2023-03-03T09:17:24;30.48;;;19.40;;
11823;SDS011;5969;50.780;7.726;2023-03-03T09:19:55;29.10;;;19.30;;
11823;SDS011;5969;50.780;7.726;2023-03-03T09:22:28;28.38;;;19.00;;
11823;SDS011;5969;50.780;7.726;2023-03-03T09:24:59;32.03;;;20.25;;
11823;SDS011;5969;50.780;7.726;2023-03-03T09:27:28;29.95;;;18.80;;
11823;SDS011;5969;50.780;7.726;2023-03-03T09:29:56;28.38;;;19.25;;
11823;SDS011;5969;50.780;7.726;2023-03-03T09:32:32;28.83;;;19.55;;
11823;SDS011;5969;50.780;7.726;2023-03-03T09:35:01;30.75;;;19.95;;
11823;SDS011;5969;50.780;7.726;2023-03-03T09:38:01;26.17;;;19.65;;
11823;SDS011;5969;50.780;7.726;2023-03-03T09:40:47;30.48;;;20.73;;
11823;SDS011;5969;50.780;7.726;2023-03-03T09:43:21;27.88;;;19.30;;
11823;SDS011;5969;50.780;7.726;2023-03-03T09:45:58;28.73;;;18.95;;
11823;SDS011;5969;50.780;7.726;2023-03-03T09:48:36;28.00;;;18.83;;
11823;SDS011;5969;50.780;7.726;2023-03-03T09:51:17;27.27;;;18.42;;
11823;SDS011;5969;50.780;7.726;2023-03-03T09:54:12;24.50;;;17.73;;
11823;SDS011;5969;50.780;7.726;2023-03-03T09:56:48;27.00;;;18.92;;
11823;SDS011;5969;50.780;7.726;2023-03-03T09:59:23;25.52;;;17.77;;
11823;SDS011;5969;50.780;7.726;2023-03-03T10:02:03;27.92;;;18.35;;
11823;SDS011;5969;50.780;7.726;2023-03-03T10:04:50;23.85;;;17.20;;
11823;SDS011;5969;50.780;7.726;2023-03-03T10:07:42;23.65;;;17.27;;
11823;SDS011;5969;50.780;7.726;2023-03-03T10:10:24;26.00;;;17.95;;
11823;SDS011;5969;50.780;7.726;2023-03-03T10:13:07;24.00;;;17.13;;
11823;SDS011;5969;50.780;7.726;2023-03-03T10:15:46;23.60;;;17.08;;
11823;SDS011;5969;50.780;7.726;2023-03-03T10:18:28;24.00;;;17.20;;
11823;SDS011;5969;50.780;7.726;2023-03-03T10:21:08;25.00;;;18.48;;
11823;SDS011;5969;50.780;7.726;2023-03-03T10:23:49;25.65;;;19.83;;
11823;SDS011;5969;50.780;7.726;2023-03-03T10:26:22;23.33;;;17.10;;
11823;SDS011;5969;50.780;7.726;2023-03-03T10:32:06;20.13;;;15.18;;
11823;SDS011;5969;50.780;7.726;2023-03-03T10:35:01;22.38;;;15.88;;
11823;SDS011;5969;50.780;7.726;2023-03-03T10:37:47;20.63;;;16.35;;
11823;SDS011;5969;50.780;7.726;2023-03-03T10:40:21;25.75;;;17.80;;
11823;SDS011;5969;50.780;7.726;2023-03-03T10:43:05;21.60;;;15.73;;
11823;SDS011;5969;50.780;7.726;2023-03-03T10:45:57;21.27;;;15.27;;
11823;SDS011;5969;50.780;7.726;2023-03-03T10:51:32;20.15;;;15.77;;
11823;SDS011;5969;50.780;7.726;2023-03-03T10:54:09;19.52;;;15.38;;
11823;SDS011;5969;50.780;7.726;2023-03-03T10:56:48;22.02;;;15.35;;
11823;SDS011;5969;50.780;7.726;2023-03-03T10:59:27;20.02;;;15.05;;
11823;SDS011;5969;50.780;7.726;2023-03-03T11:02:07;19.38;;;14.38;;
11823;SDS011;5969;50.780;7.726;2023-03-03T11:04:47;18.83;;;14.63;;
11823;SDS011;5969;50.780;7.726;2023-03-03T11:07:25;18.60;;;14.35;;
11823;SDS011;5969;50.780;7.726;2023-03-03T11:10:00;18.45;;;14.68;;
11823;SDS011;5969;50.780;7.726;2023-03-03T11:12:39;17.30;;;14.10;;
11823;SDS011;5969;50.780;7.726;2023-03-03T11:15:19;20.52;;;14.85;;
11823;SDS011;5969;50.780;7.726;2023-03-03T11:17:53;18.13;;;14.15;;
11823;SDS011;5969;50.780;7.726;2023-03-03T11:20:35;19.92;;;15.38;;
11823;SDS011;5969;50.780;7.726;2023-03-03T11:23:14;19.02;;;14.20;;
11823;SDS011;5969;50.780;7.726;2023-03-03T11:26:10;16.73;;;12.95;;
11823;SDS011;5969;50.780;7.726;2023-03-03T11:28:52;18.13;;;13.88;;
11823;SDS011;5969;50.780;7.726;2023-03-03T11:31:29;17.10;;;13.32;;
11823;SDS011;5969;50.780;7.726;2023-03-03T11:34:04;16.23;;;12.20;;
11823;SDS011;5969;50.780;7.726;2023-03-03T11:36:42;17.10;;;13.10;;
11823;SDS011;5969;50.780;7.726;2023-03-03T11:39:15;17.45;;;13.40;;
11823;SDS011;5969;50.780;7.726;2023-03-03T11:41:47;15.35;;;12.43;;
11823;SDS011;5969;50.780;7.726;2023-03-03T11:44:23;15.10;;;12.57;;
11823;SDS011;5969;50.780;7.726;2023-03-03T11:46:57;13.07;;;11.68;;
11823;SDS011;5969;50.780;7.726;2023-03-03T11:49:27;13.85;;;12.40;;
11823;SDS011;5969;50.780;7.726;2023-03-03T11:52:02;15.13;;;13.55;;
11823;SDS011;5969;50.780;7.726;2023-03-03T11:54:41;13.95;;;12.48;;
11823;SDS011;5969;50.780;7.726;2023-03-03T11:57:15;14.05;;;12.63;;
11823;SDS011;5969;50.780;7.726;2023-03-03T11:59:57;13.43;;;12.13;;
11823;SDS011;5969;50.780;7.726;2023-03-03T12:02:41;13.52;;;12.13;;
11823;SDS011;5969;50.780;7.726;2023-03-03T12:05:44;15.07;;;13.52;;
11823;SDS011;5969;50.780;7.726;2023-03-03T12:08:28;14.02;;;12.63;;
11823;SDS011;5969;50.780;7.726;2023-03-03T12:11:05;14.25;;;12.88;;
11823;SDS011;5969;50.780;7.726;2023-03-03T12:13:41;17.33;;;15.73;;
11823;SDS011;5969;50.780;7.726;2023-03-03T12:16:21;14.68;;;13.27;;
11823;SDS011;5969;50.780;7.726;2023-03-03T12:19:26;14.60;;;13.20;;
11823;SDS011;5969;50.780;7.726;2023-03-03T12:22:58;15.40;;;13.93;;
11823;SDS011;5969;50.780;7.726;2023-03-03T12:25:34;14.05;;;12.82;;
11823;SDS011;5969;50.780;7.726;2023-03-03T12:28:18;19.30;;;17.50;;
11823;SDS011;5969;50.780;7.726;2023-03-03T12:31:03;16.85;;;15.27;;
11823;SDS011;5969;50.780;7.726;2023-03-03T12:36:37;15.18;;;13.60;;
11823;SDS011;5969;50.780;7.726;2023-03-03T12:39:14;17.77;;;16.10;;
11823;SDS011;5969;50.780;7.726;2023-03-03T12:41:48;15.00;;;13.50;;
11823;SDS011;5969;50.780;7.726;2023-03-03T12:44:20;13.88;;;12.68;;
11823;SDS011;5969;50.780;7.726;2023-03-03T12:46:52;13.70;;;12.48;;
11823;SDS011;5969;50.780;7.726;2023-03-03T12:49:27;14.38;;;12.95;;
11823;SDS011;5969;50.780;7.726;2023-03-03T12:52:10;14.40;;;12.98;;
11823;SDS011;5969;50.780;7.726;2023-03-03T12:54:49;13.63;;;12.38;;
11823;SDS011;5969;50.780;7.726;2023-03-03T12:57:32;14.32;;;12.93;;
11823;SDS011;5969;50.780;7.726;2023-03-03T13:02:58;14.88;;;13.38;;
11823;SDS011;5969;50.780;7.726;2023-03-03T13:05:32;14.73;;;13.25;;
11823;SDS011;5969;50.780;7.726;2023-03-03T13:08:16;14.93;;;13.52;;
11823;SDS011;5969;50.780;7.726;2023-03-03T13:11:00;14.80;;;13.40;;
11823;SDS011;5969;50.780;7.726;2023-03-03T13:13:42;14.80;;;13.40;;
11823;SDS011;5969;50.780;7.726;2023-03-03T13:16:18;14.40;;;13.10;;
11823;SDS011;5969;50.780;7.726;2023-03-03T13:18:52;15.52;;;13.95;;
11823;SDS011;5969;50.780;7.726;2023-03-03T13:21:23;15.02;;;13.55;;
11823;SDS011;5969;50.780;7.726;2023-03-03T13:24:00;13.73;;;12.43;;
11823;SDS011;5969;50.780;7.726;2023-03-03T13:26:36;15.20;;;13.60;;
11823;SDS011;5969;50.780;7.726;2023-03-03T13:29:11;15.40;;;13.85;;
11823;SDS011;5969;50.780;7.726;2023-03-03T13:31:44;15.52;;;14.02;;
11823;SDS011;5969;50.780;7.726;2023-03-03T13:34:19;14.73;;;13.23;;
11823;SDS011;5969;50.780;7.726;2023-03-03T13:36:55;15.38;;;13.77;;
11823;SDS011;5969;50.780;7.726;2023-03-03T13:39:31;16.70;;;14.02;;
11823;SDS011;5969;50.780;7.726;2023-03-03T13:42:01;14.50;;;13.10;;
11823;SDS011;5969;50.780;7.726;2023-03-03T13:44:30;15.15;;;13.65;;
11823;SDS011;5969;50.780;7.726;2023-03-03T13:47:03;14.80;;;13.27;;
11823;SDS011;5969;50.780;7.726;2023-03-03T13:49:52;14.55;;;13.02;;
11823;SDS011;5969;50.780;7.726;2023-03-03T13:52:26;16.70;;;14.15;;
11823;SDS011;5969;50.780;7.726;2023-03-03T13:55:02;14.65;;;13.02;;
11823;SDS011;5969;50.780;7.726;2023-03-03T13:57:49;14.75;;;13.15;;
11823;SDS011;5969;50.780;7.726;2023-03-03T14:00:25;14.77;;;13.27;;
11823;SDS011;5969;50.780;7.726;2023-03-03T14:03:07;14.90;;;13.32;;
11823;SDS011;5969;50.780;7.726;2023-03-03T14:05:46;14.45;;;12.93;;
11823;SDS011;5969;50.780;7.726;2023-03-03T14:08:17;15.35;;;13.73;;
11823;SDS011;5969;50.780;7.726;2023-03-03T14:11:01;14.02;;;12.63;;
11823;SDS011;5969;50.780;7.726;2023-03-03T14:13:37;13.50;;;12.20;;
11823;SDS011;5969;50.780;7.726;2023-03-03T14:16:11;14.43;;;12.93;;
11823;SDS011;5969;50.780;7.726;2023-03-03T14:18:48;14.23;;;12.73;;
11823;SDS011;5969;50.780;7.726;2023-03-03T14:21:22;15.32;;;13.23;;
11823;SDS011;5969;50.780;7.726;2023-03-03T14:23:55;14.23;;;12.85;;
11823;SDS011;5969;50.780;7.726;2023-03-03T14:26:30;13.80;;;12.43;;
11823;SDS011;5969;50.780;7.726;2023-03-03T14:29:03;14.55;;;13.05;;
11823;SDS011;5969;50.780;7.726;2023-03-03T14:31:45;14.50;;;13.00;;
11823;SDS011;5969;50.780;7.726;2023-03-03T14:34:14;14.38;;;12.98;;
11823;SDS011;5969;50.780;7.726;2023-03-03T14:36:57;13.93;;;12.27;;
11823;SDS011;5969;50.780;7.726;2023-03-03T14:39:28;14.30;;;12.90;;
11823;SDS011;5969;50.780;7.726;2023-03-03T14:41:59;14.38;;;12.88;;
11823;SDS011;5969;50.780;7.726;2023-03-03T14:44:27;14.20;;;12.70;;
11823;SDS011;5969;50.780;7.726;2023-03-03T14:47:02;13.63;;;12.18;;
11823;SDS011;5969;50.780;7.726;2023-03-03T14:49:37;13.45;;;12.07;;
11823;SDS011;5969;50.780;7.726;2023-03-03T14:52:10;13.60;;;12.30;;
11823;SDS011;5969;50.780;7.726;2023-03-03T14:54:46;12.60;;;11.30;;
11823;SDS011;5969;50.780;7.726;2023-03-03T14:57:17;13.90;;;11.68;;
11823;SDS011;5969;50.780;7.726;2023-03-03T14:59:55;19.17;;;12.52;;
11823;SDS011;5969;50.780;7.726;2023-03-03T15:02:29;13.77;;;12.18;;
11823;SDS011;5969;50.780;7.726;2023-03-03T15:05:17;13.82;;;12.23;;
11823;SDS011;5969;50.780;7.726;2023-03-03T15:07:48;13.40;;;12.00;;
11823;SDS011;5969;50.780;7.726;2023-03-03T15:10:28;13.40;;;11.80;;
11823;SDS011;5969;50.780;7.726;2023-03-03T15:12:58;13.65;;;12.32;;
11823;SDS011;5969;50.780;7.726;2023-03-03T15:15:36;12.68;;;11.38;;
11823;SDS011;5969;50.780;7.726;2023-03-03T15:18:14;13.30;;;11.98;;
11823;SDS011;5969;50.780;7.726;2023-03-03T15:20:41;13.57;;;12.18;;
11823;SDS011;5969;50.780;7.726;2023-03-03T15:23:18;13.75;;;12.32;;
11823;SDS011;5969;50.780;7.726;2023-03-03T15:25:57;13.57;;;12.05;;
11823;SDS011;5969;50.780;7.726;2023-03-03T15:28:41;16.10;;;13.15;;